Time;durP1;ratioP1;P1;durP2;ratioP2;P2;SDS_P1;SDS_P2;PMS_P1;PMS_P2;Temp;Humidity;BMP_temperature;BMP_pressure;BME280_temperature;BME280_humidity;BME280_pressure;Samples;Min_cycle;Max_cycle;Signal;HPM_P1;HPM_P2
2022/04/14 00:00:34;;;;;;;28.55;13.70;;;;;;;4.19;100.00;98826.59;5130159;28;20047;-57
2022/04/14 00:03:00;;;;;;;30.55;13.73;;;;;;;4.14;100.00;98826.00;5130210;27;20047;-57
2022/04/14 00:05:27;;;;;;;30.13;13.07;;;;;;;4.15;100.00;98827.59;5129906;28;20061;-57
2022/04/14 00:07:53;;;;;;;28.48;12.05;;;;;;;4.04;100.00;98832.63;5130123;27;20051;-57
2022/04/14 00:10:19;;;;;;;30.25;13.13;;;;;;;4.01;100.00;98835.97;5133583;27;20517;-57
2022/04/14 00:12:48;;;;;;;29.17;11.80;;;;;;;3.91;100.00;98837.16;5133742;27;20053;-57
2022/04/14 00:15:14;;;;;;;25.15;11.52;;;;;;;3.90;100.00;98846.44;5133655;28;20131;-57
2022/04/14 00:17:41;;;;;;;32.28;11.18;;;;;;;3.81;100.00;98850.31;5133521;28;20447;-57
2022/04/14 00:20:10;;;;;;;25.02;11.40;;;;;;;3.78;100.00;98865.31;5133645;28;20043;-57
2022/04/14 00:22:36;;;;;;;27.65;10.95;;;;;;;3.73;100.00;98865.47;5133321;28;20062;-57
2022/04/14 00:25:03;;;;;;;26.40;11.18;;;;;;;3.68;100.00;98871.09;5133347;27;20051;-57
2022/04/14 00:27:29;;;;;;;23.05;10.40;;;;;;;3.66;100.00;98874.13;5133285;28;20055;-57
2022/04/14 00:29:55;;;;;;;23.45;11.18;;;;;;;3.60;100.00;98864.59;5133234;27;20561;-58
2022/04/14 00:32:21;;;;;;;41.60;11.43;;;;;;;3.64;100.00;98865.53;5133277;28;20051;-57
2022/04/14 00:34:48;;;;;;;41.90;12.38;;;;;;;3.58;100.00;98872.25;5133517;28;20047;-57
2022/04/14 00:37:17;;;;;;;29.58;11.18;;;;;;;3.49;100.00;98879.63;5133131;28;20055;-57
2022/04/14 00:39:43;;;;;;;50.65;11.02;;;;;;;3.39;100.00;98890.81;5133288;27;20043;-57
2022/04/14 00:42:10;;;;;;;43.03;10.60;;;;;;;3.34;100.00;98901.84;5133060;27;20043;-57
2022/04/14 00:44:36;;;;;;;53.25;11.10;;;;;;;3.29;100.00;98910.91;5133099;28;20518;-57
2022/04/14 00:47:03;;;;;;;39.17;9.88;;;;;;;3.21;100.00;98938.84;5133022;27;20043;-57
2022/04/14 00:49:30;;;;;;;22.25;8.75;;;;;;;3.17;100.00;98948.72;5132997;28;20134;-57
2022/04/14 00:51:59;;;;;;;23.83;8.57;;;;;;;3.06;100.00;98957.16;5133187;28;20416;-57
2022/04/14 00:54:26;;;;;;;33.72;8.02;;;;;;;3.08;100.00;98973.09;5133069;28;20054;-57
2022/04/14 00:56:52;;;;;;;24.55;7.95;;;;;;;2.99;100.00;98983.13;5132769;27;20058;-57
2022/04/14 00:59:18;;;;;;;19.90;7.88;;;;;;;2.99;100.00;98993.97;5132768;28;20046;-57
2022/04/14 01:01:45;;;;;;;26.02;7.55;;;;;;;2.96;100.00;98997.31;5132645;27;20054;-57
2022/04/14 01:04:12;;;;;;;16.33;7.53;;;;;;;2.95;100.00;99020.09;5132807;28;20051;-59
2022/04/14 01:06:39;;;;;;;16.63;7.30;;;;;;;2.90;100.00;99036.50;5132516;28;20047;-59
2022/04/14 01:09:19;;;;;;;18.65;7.43;;;;;;;2.82;100.00;99044.28;5133069;27;20069;-59
2022/04/14 01:11:46;;;;;;;25.08;7.88;;;;;;;2.81;100.00;99071.69;5132481;28;20498;-59
2022/04/14 01:14:19;;;;;;;18.95;7.60;;;;;;;2.74;100.00;99072.16;5132656;27;20051;-59
2022/04/14 01:16:45;;;;;;;17.52;7.85;;;;;;;2.75;100.00;99078.34;5132432;28;20051;-59
2022/04/14 01:19:12;;;;;;;20.83;8.55;;;;;;;2.71;100.00;99091.72;5132596;28;20081;-59
2022/04/14 01:21:44;;;;;;;25.42;8.73;;;;;;;2.70;100.00;99102.84;5131865;27;20457;-59
2022/04/14 01:24:11;;;;;;;25.60;9.15;;;;;;;2.64;100.00;99112.25;5132161;27;20103;-59
2022/04/14 01:26:38;;;;;;;21.88;8.13;;;;;;;2.61;100.00;99121.78;5132430;28;20051;-59
2022/04/14 01:29:04;;;;;;;24.17;8.50;;;;;;;2.63;100.00;99132.28;5132211;27;20046;-59
2022/04/14 01:31:31;;;;;;;22.40;8.23;;;;;;;2.56;100.00;99144.34;5132275;28;20055;-59
2022/04/14 01:33:57;;;;;;;20.50;7.57;;;;;;;2.61;100.00;99164.31;5132405;28;20057;-59
2022/04/14 01:36:23;;;;;;;20.17;8.80;;;;;;;2.48;100.00;99168.69;5132306;27;20047;-59
2022/04/14 01:38:49;;;;;;;18.45;8.27;;;;;;;2.48;100.00;99183.03;5132624;28;20047;-59
2022/04/14 01:41:16;;;;;;;22.88;8.38;;;;;;;2.42;100.00;99197.00;5132120;27;20047;-59
2022/04/14 01:43:43;;;;;;;17.02;8.13;;;;;;;2.39;100.00;99208.44;5132130;27;20104;-59
2022/04/14 01:46:10;;;;;;;17.90;7.75;;;;;;;2.41;100.00;99225.16;5132131;27;20532;-59
2022/04/14 01:48:38;;;;;;;17.48;8.15;;;;;;;2.39;100.00;99227.38;5132023;28;20116;-59
2022/04/14 01:51:04;;;;;;;16.30;7.68;;;;;;;2.35;100.00;99244.22;5131856;27;20442;-60
2022/04/14 01:53:31;;;;;;;17.80;7.30;;;;;;;2.29;100.00;99261.69;5132092;28;20069;-59
2022/04/14 01:55:57;;;;;;;21.48;7.90;;;;;;;2.33;100.00;99272.69;5131756;27;20421;-59
2022/04/14 01:58:24;;;;;;;22.60;8.25;;;;;;;2.25;100.00;99276.94;5131837;28;20439;-59
2022/04/14 02:00:50;;;;;;;19.45;7.57;;;;;;;2.27;100.00;99295.56;5131570;28;20590;-59
2022/04/14 02:03:16;;;;;;;21.42;7.65;;;;;;;2.23;100.00;99306.22;5131882;28;20501;-59
2022/04/14 02:05:43;;;;;;;20.20;7.20;;;;;;;2.19;100.00;99320.63;5131894;27;20577;-59
2022/04/14 02:08:09;;;;;;;15.13;7.30;;;;;;;2.15;100.00;99333.97;5131188;27;20134;-59
2022/04/14 02:10:36;;;;;;;16.17;6.72;;;;;;;2.06;100.00;99362.81;5131678;27;20054;-59
2022/04/14 02:13:02;;;;;;;15.20;6.57;;;;;;;2.04;100.00;99390.19;5131647;27;20137;-59
2022/04/14 02:15:29;;;;;;;20.67;6.78;;;;;;;1.96;100.00;99423.31;5131597;27;20129;-59
2022/04/14 02:17:55;;;;;;;16.90;6.22;;;;;;;2.00;100.00;99455.97;5131624;27;20137;-59
2022/04/14 02:20:21;;;;;;;11.10;5.75;;;;;;;1.94;100.00;99470.72;5131670;28;20047;-58
2022/04/14 02:22:48;;;;;;;16.02;6.43;;;;;;;1.97;100.00;99489.03;5131481;28;20054;-59
2022/04/14 02:25:14;;;;;;;14.18;5.40;;;;;;;1.90;100.00;99494.84;5131309;28;20051;-59
2022/04/14 02:27:40;;;;;;;15.60;5.55;;;;;;;1.85;100.00;99522.75;5131658;27;20051;-59
2022/04/14 02:30:08;;;;;;;9.73;5.13;;;;;;;1.89;100.00;99540.00;5131256;27;20498;-59
2022/04/14 02:32:34;;;;;;;13.35;5.60;;;;;;;1.91;100.00;99549.72;5130329;27;20053;-59
2022/04/14 02:35:01;;;;;;;14.73;5.60;;;;;;;1.96;100.00;99565.84;5131261;27;20058;-59
2022/04/14 02:37:28;;;;;;;11.60;5.97;;;;;;;1.84;100.00;99566.34;5131245;28;20051;-59
2022/04/14 02:39:54;;;;;;;11.68;5.30;;;;;;;1.92;100.00;99589.16;5131326;27;20047;-59
2022/04/14 02:42:20;;;;;;;15.63;5.90;;;;;;;1.88;100.00;99591.66;5131272;28;20051;-59
2022/04/14 02:44:46;;;;;;;12.25;5.32;;;;;;;1.88;100.00;99594.38;5131352;27;20047;-59
2022/04/14 02:47:12;;;;;;;16.63;6.15;;;;;;;1.82;100.00;99612.56;5131216;27;20065;-59
2022/04/14 02:49:39;;;;;;;13.27;5.22;;;;;;;1.79;100.00;99623.97;5131417;27;20051;-59
2022/04/14 02:52:06;;;;;;;13.27;5.70;;;;;;;1.81;100.00;99640.72;5131468;28;20456;-59
2022/04/14 02:54:37;;;;;;;12.30;5.75;;;;;;;1.77;100.00;99660.53;5131627;27;20147;-59
2022/04/14 02:57:05;;;;;;;17.58;6.28;;;;;;;1.84;100.00;99682.59;5130808;27;20051;-59
2022/04/14 02:59:31;;;;;;;20.02;6.20;;;;;;;1.80;100.00;99689.66;5131248;28;20096;-59
2022/04/14 03:01:57;;;;;;;10.95;5.10;;;;;;;1.80;100.00;99690.47;5131006;27;20489;-59
2022/04/14 03:04:23;;;;;;;15.50;5.05;;;;;;;1.78;100.00;99691.88;5130919;27;20051;-59
2022/04/14 03:06:51;;;;;;;17.65;5.55;;;;;;;1.77;100.00;99709.97;5130407;27;20047;-59
2022/04/14 03:09:17;;;;;;;45.88;6.90;;;;;;;1.77;100.00;99725.41;5130794;28;20051;-59
2022/04/14 03:11:43;;;;;;;38.33;6.97;;;;;;;1.72;100.00;99728.16;5130965;27;20407;-59
2022/04/14 03:14:10;;;;;;;24.73;6.53;;;;;;;1.68;100.00;99735.25;5130910;27;20051;-59
2022/04/14 03:16:36;;;;;;;32.88;5.45;;;;;;;1.62;100.00;99738.03;5130855;27;20046;-59
2022/04/14 03:19:02;;;;;;;33.45;5.90;;;;;;;1.68;100.00;99759.59;5130943;28;20051;-59
2022/04/14 03:21:29;;;;;;;34.28;5.78;;;;;;;1.61;100.00;99759.94;5130659;27;20505;-59
2022/04/14 03:23:56;;;;;;;25.40;4.97;;;;;;;1.68;100.00;99787.41;5130536;27;20054;-59
2022/04/14 03:26:22;;;;;;;27.73;5.88;;;;;;;1.77;100.00;99795.69;5130925;28;20417;-59
2022/04/14 03:28:48;;;;;;;18.20;5.45;;;;;;;1.84;100.00;99790.72;5130586;27;20054;-59
2022/04/14 03:31:14;;;;;;;15.73;4.13;;;;;;;1.91;100.00;99780.34;5130480;28;20525;-59
2022/04/14 03:33:40;;;;;;;20.77;4.78;;;;;;;1.92;100.00;99783.84;5130527;27;20051;-59
2022/04/14 03:36:06;;;;;;;10.73;4.68;;;;;;;2.04;100.00;99770.69;5130480;28;20055;-59
2022/04/14 03:38:33;;;;;;;12.10;4.93;;;;;;;2.02;100.00;99759.38;5130539;27;20047;-59
2022/04/14 03:41:02;;;;;;;13.32;4.90;;;;;;;2.10;100.00;99775.75;5130532;27;20055;-59
2022/04/14 03:43:29;;;;;;;15.68;5.53;;;;;;;2.26;100.00;99768.16;5132029;27;20043;-59
2022/04/14 03:45:55;;;;;;;13.43;5.20;;;;;;;2.50;100.00;99749.13;5134228;28;20051;-59
2022/04/14 03:48:21;;;;;;;15.88;5.72;;;;;;;2.72;100.00;99712.47;5133992;27;20051;-59
2022/04/14 03:50:47;;;;;;;10.85;5.40;;;;;;;2.91;100.00;99650.09;5133836;27;20050;-59
2022/04/14 03:53:13;;;;;;;16.10;5.95;;;;;;;3.21;100.00;99579.00;5134558;27;20046;-59
2022/04/14 03:55:40;;;;;;;16.40;5.65;;;;;;;3.56;100.00;99489.81;5133687;27;20058;-59
2022/04/14 03:58:06;;;;;;;18.10;5.72;;;;;;;3.78;100.00;99380.50;5133964;28;20498;-59
2022/04/14 04:00:33;;;;;;;13.23;5.35;;;;;;;3.98;100.00;99287.69;5134186;28;20062;-59
2022/04/14 04:02:59;;;;;;;16.55;5.05;;;;;;;4.31;100.00;99180.59;5133937;28;20047;-59
2022/04/14 04:05:25;;;;;;;10.05;4.80;;;;;;;4.48;100.00;99102.63;5133733;28;20422;-59
2022/04/14 04:07:51;;;;;;;14.25;5.70;;;;;;;4.56;100.00;99048.59;5133506;27;20103;-59
2022/04/14 04:10:18;;;;;;;10.55;5.13;;;;;;;4.67;100.00;99014.53;5133915;27;20051;-60
2022/04/14 04:12:44;;;;;;;16.58;5.70;;;;;;;4.74;100.00;98990.38;5133870;28;20104;-60
2022/04/14 04:15:12;;;;;;;14.60;5.55;;;;;;;4.77;100.00;98970.69;5133670;27;20058;-59
2022/04/14 04:17:39;;;;;;;15.65;5.43;;;;;;;4.94;100.00;98959.69;5133492;28;20561;-59
2022/04/14 04:20:05;;;;;;;14.75;5.93;;;;;;;5.23;100.00;98933.56;5133871;27;20092;-59
2022/04/14 04:22:33;;;;;;;17.60;5.63;;;;;;;5.47;100.00;98911.06;5133669;28;20058;-59
2022/04/14 04:24:59;;;;;;;12.40;6.13;;;;;;;5.85;100.00;98894.44;5133264;27;20043;-59
2022/04/14 04:27:25;;;;;;;12.98;5.47;;;;;;;6.21;100.00;98867.59;5133723;28;20051;-60
2022/04/14 04:29:52;;;;;;;12.13;5.35;;;;;;;6.68;100.00;98851.47;5133248;28;20062;-59
2022/04/14 04:32:19;;;;;;;11.55;5.20;;;;;;;7.15;100.00;98842.59;5133518;27;20408;-59
2022/04/14 04:34:45;;;;;;;20.70;6.45;;;;;;;7.44;100.00;98855.03;5133261;27;20422;-59
2022/04/14 04:37:11;;;;;;;26.23;5.90;;;;;;;7.85;100.00;98866.56;5133330;27;20051;-59
2022/04/14 04:39:37;;;;;;;17.45;6.90;;;;;;;8.29;100.00;98881.97;5133045;27;20047;-59
2022/04/14 04:42:04;;;;;;;20.23;5.80;;;;;;;8.47;100.00;98919.50;5132885;27;20160;-60
2022/04/14 04:44:30;;;;;;;18.10;5.53;;;;;;;8.56;100.00;98949.34;5133157;28;20042;-60
2022/04/14 04:46:56;;;;;;;21.23;6.30;;;;;;;8.66;100.00;98948.81;5133299;27;20051;-60
2022/04/14 04:49:23;;;;;;;18.88;7.70;;;;;;;8.79;100.00;98956.88;5132795;27;20047;-60
2022/04/14 04:51:49;;;;;;;32.13;12.95;;;;;;;9.09;100.00;98963.34;5133185;28;20047;-60
2022/04/14 04:54:15;;;;;;;16.98;6.25;;;;;;;9.32;100.00;98985.31;5132584;27;20513;-60
2022/04/14 04:56:41;;;;;;;15.73;5.53;;;;;;;9.42;100.00;99016.78;5132415;28;20906;-60
2022/04/14 04:59:08;;;;;;;17.80;6.03;;;;;;;9.66;100.00;99034.84;5133071;28;20383;-59
2022/04/14 05:01:34;;;;;;;10.95;5.65;;;;;;;9.77;100.00;99048.75;5132909;28;20043;-58
2022/04/14 05:04:00;;;;;;;14.07;5.43;;;;;;;10.11;100.00;99068.94;5132512;27;20055;-58
2022/04/14 05:06:27;;;;;;;20.23;6.47;;;;;;;10.39;100.00;99065.91;5132427;28;20107;-58
2022/04/14 05:08:54;;;;;;;21.35;8.75;;;;;;;10.74;100.00;99095.09;5131920;27;20494;-59
2022/04/14 05:11:20;;;;;;;25.40;8.38;;;;;;;11.13;100.00;99112.16;5132157;28;20047;-62
2022/04/14 05:13:46;;;;;;;25.42;8.65;;;;;;;11.59;100.00;99142.19;5132558;27;20043;-57
2022/04/14 05:16:13;;;;;;;21.98;7.90;;;;;;;12.16;100.00;99159.41;5138518;27;20051;-59
2022/04/14 05:18:39;;;;;;;16.13;7.75;;;;;;;12.69;100.00;99203.19;5147248;27;20055;-57
2022/04/14 05:21:05;;;;;;;20.20;6.70;;;;;;;13.16;100.00;99228.34;5133502;27;20103;-58
2022/04/14 05:23:32;;;;;;;22.30;7.55;;;;;;;13.70;100.00;99254.38;5133411;27;20096;-58
2022/04/14 05:25:58;;;;;;;15.10;6.70;;;;;;;14.12;100.00;99264.03;5138170;27;20099;-58
2022/04/14 05:28:25;;;;;;;19.13;6.80;;;;;;;14.34;100.00;99278.75;5132067;28;20047;-59
2022/04/14 05:30:52;;;;;;;20.75;7.10;;;;;;;14.72;100.00;99306.88;5132142;27;20047;-61
2022/04/14 05:33:18;;;;;;;16.95;9.05;;;;;;;15.16;100.00;99305.81;5133269;27;20104;-62
2022/04/14 05:35:45;;;;;;;9.27;5.38;;;;;;;15.47;100.00;99362.28;5146062;27;20488;-63
2022/04/14 05:38:11;;;;;;;25.02;6.72;;;;;;;15.71;100.00;99372.59;5153025;27;20050;-61
2022/04/14 05:40:41;;;;;;;20.50;8.40;;;;;;;15.85;98.10;99396.69;5152801;27;20047;-64
2022/04/14 05:43:08;;;;;;;25.42;6.32;;;;;;;16.03;98.29;99390.34;5152657;27;20046;-59
2022/04/14 05:45:36;;;;;;;20.52;6.05;;;;;;;16.03;92.05;99405.00;5140764;27;20054;-53
2022/04/14 05:48:03;;;;;;;30.65;9.23;;;;;;;16.30;93.98;99410.91;5138371;27;20051;-57
2022/04/14 05:50:29;;;;;;;27.60;8.93;;;;;;;16.58;94.25;99398.19;5131841;27;20120;-59
2022/04/14 05:52:56;;;;;;;22.25;7.20;;;;;;;16.84;90.78;99408.81;5132101;28;20054;-61
2022/04/14 05:55:22;;;;;;;25.17;8.60;;;;;;;16.96;88.14;99426.16;5131855;27;20510;-58
2022/04/14 05:57:49;;;;;;;19.92;5.97;;;;;;;17.31;84.49;99426.00;5136761;27;20062;-59
2022/04/14 06:00:16;;;;;;;16.63;5.15;;;;;;;17.58;82.04;99442.09;5150988;27;20050;-61
2022/04/14 06:02:42;;;;;;;21.40;8.38;;;;;;;17.63;81.84;99444.44;5147022;27;20055;-59
2022/04/14 06:05:09;;;;;;;18.70;7.70;;;;;;;17.67;81.72;99438.88;5152326;27;20398;-59
2022/04/14 06:07:35;;;;;;;17.25;5.85;;;;;;;17.73;81.25;99442.81;5151556;27;20126;-59
2022/04/14 06:10:01;;;;;;;13.85;7.35;;;;;;;17.74;83.12;99427.72;5152205;27;20074;-59
2022/04/14 06:12:27;;;;;;;16.73;7.65;;;;;;;18.32;83.08;99423.31;5152063;27;20069;-59
2022/04/14 06:14:54;;;;;;;11.93;6.07;;;;;;;18.54;79.45;99435.00;5151769;27;20046;-60
2022/04/14 06:17:20;;;;;;;17.30;7.55;;;;;;;18.70;80.85;99428.91;5152017;27;20046;-59
2022/04/14 06:19:47;;;;;;;9.02;4.78;;;;;;;19.04;76.68;99437.25;5151838;27;20051;-59
2022/04/14 06:22:13;;;;;;;16.45;11.20;;;;;;;19.31;72.35;99454.00;5152051;27;20047;-60
2022/04/14 06:24:39;;;;;;;15.25;5.78;;;;;;;19.59;72.22;99447.22;5151971;27;20080;-59
2022/04/14 06:27:06;;;;;;;15.38;6.07;;;;;;;19.85;73.42;99451.25;5151625;27;20054;-59
2022/04/14 06:29:32;;;;;;;6.32;4.60;;;;;;;19.96;67.06;99465.03;5151355;27;20051;-63
2022/04/14 06:31:59;;;;;;;9.27;5.68;;;;;;;20.17;65.22;99470.25;5151783;27;20059;-62
2022/04/14 06:34:25;;;;;;;14.43;9.45;;;;;;;20.44;65.27;99469.41;5151900;27;20043;-62
2022/04/14 06:36:51;;;;;;;15.85;7.00;;;;;;;20.36;65.26;99470.72;5151633;27;20406;-63
2022/04/14 06:39:17;;;;;;;8.07;5.20;;;;;;;20.38;64.09;99468.31;5151252;27;20053;-61
2022/04/14 06:41:43;;;;;;;11.50;5.13;;;;;;;20.56;65.84;99465.22;5151166;27;20058;-63
2022/04/14 06:44:10;;;;;;;7.55;5.20;;;;;;;20.72;64.67;99470.13;5151846;27;20046;-64
2022/04/14 06:46:36;;;;;;;19.63;7.00;;;;;;;21.11;65.24;99464.56;5151864;27;20705;-64
2022/04/14 06:49:04;;;;;;;62.42;43.50;;;;;;;21.09;65.04;99471.78;5141006;27;20048;-63
2022/04/14 06:51:30;;;;;;;5.13;3.35;;;;;;;20.86;62.20;99472.66;5131072;28;20103;-60
2022/04/14 06:53:56;;;;;;;9.18;6.10;;;;;;;21.09;63.69;99471.78;5130891;28;20066;-60
2022/04/14 06:56:22;;;;;;;11.98;6.05;;;;;;;21.53;63.34;99462.16;5130426;27;20055;-61
2022/04/14 06:58:48;;;;;;;12.73;5.03;;;;;;;21.88;62.77;99464.56;5141461;27;20449;-59
2022/04/14 07:01:15;;;;;;;8.55;3.50;;;;;;;21.94;61.04;99473.97;5130508;28;20043;-58
2022/04/14 07:03:41;;;;;;;6.65;4.32;;;;;;;21.99;60.34;99477.06;5130772;28;20051;-65
2022/04/14 07:06:08;;;;;;;5.45;4.32;;;;;;;21.98;61.46;99471.88;5130543;28;20072;-64
2022/04/14 07:08:34;;;;;;;6.95;4.63;;;;;;;21.91;61.86;99464.47;5129762;27;20055;-61
2022/04/14 07:11:01;;;;;;;20.40;5.70;;;;;;;22.12;66.71;99457.56;5150627;27;20054;-64
2022/04/14 07:13:27;;;;;;;20.35;4.80;;;;;;;22.10;61.30;99462.84;5151150;27;20082;-63
2022/04/14 07:15:55;;;;;;;20.35;4.22;;;;;;;22.35;61.73;99458.66;5151314;27;20118;-65
2022/04/14 07:18:22;;;;;;;9.82;3.67;;;;;;;22.60;58.75;99456.00;5149889;27;20047;-65
2022/04/14 07:20:49;;;;;;;8.98;4.30;;;;;;;22.30;60.78;99455.16;5132498;27;20050;-67
2022/04/14 07:23:16;;;;;;;10.30;4.40;;;;;;;22.11;61.22;99456.00;5130583;28;20501;-66
2022/04/14 07:25:42;;;;;;;7.07;3.95;;;;;;;22.31;60.98;99455.94;5130503;28;20047;-67
2022/04/14 07:28:08;;;;;;;7.68;4.30;;;;;;;22.29;60.86;99452.81;5130601;28;20047;-68
2022/04/14 07:30:34;;;;;;;5.07;3.42;;;;;;;22.34;60.21;99451.50;5146553;27;20054;-67
2022/04/14 07:33:00;;;;;;;6.93;4.30;;;;;;;22.50;59.74;99446.69;5150266;27;20058;-75
2022/04/14 07:35:28;;;;;;;8.77;4.25;;;;;;;22.85;59.82;99446.94;5149442;27;20047;-63
2022/04/14 07:37:54;;;;;;;5.32;3.95;;;;;;;23.02;60.04;99444.88;5136887;27;20051;-63
2022/04/14 07:40:22;;;;;;;9.50;3.40;;;;;;;22.71;58.25;99445.31;5134113;27;20070;-62
2022/04/14 07:42:49;;;;;;;6.30;3.20;;;;;;;22.55;58.16;99439.75;5131544;27;20051;-61
2022/04/14 07:45:16;;;;;;;6.25;3.28;;;;;;;22.38;58.65;99441.78;5143936;27;20111;-62
2022/04/14 07:47:44;;;;;;;7.93;2.70;;;;;;;22.74;57.89;99426.88;5129804;28;20058;-62
2022/04/14 07:50:11;;;;;;;7.95;2.85;;;;;;;22.67;57.95;99427.09;5130051;28;20566;-63
2022/04/14 07:52:48;;;;;;;8.77;3.20;;;;;;;22.64;59.71;99419.56;5129980;28;20405;-63
2022/04/14 07:55:19;;;;;;;4.13;2.42;;;;;;;23.15;57.08;99425.34;5130289;27;20047;-62
2022/04/14 07:57:46;;;;;;;7.50;2.70;;;;;;;22.67;55.80;99439.03;5150007;27;20056;-63
2022/04/14 08:00:13;;;;;;;5.65;2.50;;;;;;;22.45;55.84;99424.06;5146651;27;20233;-63
2022/04/14 08:02:46;;;;;;;5.85;2.75;;;;;;;22.35;57.43;99417.53;5132243;27;20085;-63
2022/04/14 08:05:13;;;;;;;7.72;2.80;;;;;;;21.64;57.76;99422.84;5150498;27;20093;-62
2022/04/14 08:07:39;;;;;;;5.15;3.13;;;;;;;21.53;58.33;99422.31;5142521;27;20047;-61
2022/04/14 08:10:06;;;;;;;13.10;10.45;;;;;;;21.08;57.32;99423.63;5135226;27;20501;-62
2022/04/14 08:12:32;;;;;;;6.05;3.55;;;;;;;21.34;56.52;99426.69;5128592;27;20054;-62
2022/04/14 08:14:59;;;;;;;5.47;3.33;;;;;;;21.61;56.95;99416.13;5150335;27;20050;-62
2022/04/14 08:17:25;;;;;;;6.03;3.33;;;;;;;21.82;56.18;99417.63;5150368;27;20087;-62
2022/04/14 08:19:51;;;;;;;6.78;2.92;;;;;;;21.53;56.45;99408.38;5150251;27;20151;-62
2022/04/14 08:22:17;;;;;;;6.15;4.25;;;;;;;21.90;57.76;99407.09;5149210;27;20103;-62
2022/04/14 08:24:44;;;;;;;11.15;2.80;;;;;;;21.92;56.89;99406.63;5144947;27;20046;-62
2022/04/14 08:27:11;;;;;;;5.75;3.10;;;;;;;21.83;56.64;99407.25;5140186;27;20425;-62
2022/04/14 08:29:37;;;;;;;4.03;2.33;;;;;;;21.44;55.66;99410.97;5138540;27;20051;-62
2022/04/14 08:32:07;;;;;;;6.35;2.70;;;;;;;21.38;58.03;99407.88;5144789;27;20524;-63
2022/04/14 08:34:34;;;;;;;5.30;3.25;;;;;;;21.73;59.55;99391.56;5133958;27;20058;-63
2022/04/14 08:37:00;;;;;;;5.30;3.38;;;;;;;21.70;56.98;99398.78;5133211;28;20520;-62
2022/04/14 08:39:29;;;;;;;7.15;4.53;;;;;;;21.35;57.99;99400.38;5132680;28;20054;-62
2022/04/14 08:42:03;;;;;;;8.27;4.57;;;;;;;21.54;57.91;99399.56;5132896;28;20059;-63
2022/04/14 08:44:33;;;;;;;6.68;3.55;;;;;;;22.10;56.27;99404.19;5151017;27;20050;-63
2022/04/14 08:47:00;;;;;;;8.43;3.53;;;;;;;22.47;57.12;99393.69;5153764;27;20063;-63
2022/04/14 08:49:27;;;;;;;13.15;6.22;;;;;;;22.15;57.40;99388.91;5153894;27;20880;-62
2022/04/14 08:51:56;;;;;;;13.75;6.22;;;;;;;22.15;58.04;99386.13;5153593;27;20142;-62
2022/04/14 08:54:22;;;;;;;17.17;5.32;;;;;;;22.42;57.26;99388.63;5136258;27;20488;-63
2022/04/14 08:56:51;;;;;;;15.50;5.40;;;;;;;22.46;58.32;99384.53;5150647;27;20057;-63
2022/04/14 08:59:18;;;;;;;6.28;4.30;;;;;;;22.52;56.93;99381.97;5152798;27;20050;-62
2022/04/14 09:01:45;;;;;;;10.55;3.67;;;;;;;22.58;57.61;99383.00;5153200;27;20053;-63
2022/04/14 09:04:11;;;;;;;8.68;3.85;;;;;;;22.63;57.50;99376.88;5141443;27;20403;-62
2022/04/14 09:06:38;;;;;;;8.18;3.30;;;;;;;22.79;57.55;99373.22;5141075;27;20051;-60
2022/04/14 09:09:04;;;;;;;13.95;3.67;;;;;;;22.84;57.83;99369.91;5137746;27;20047;-63
2022/04/14 09:11:31;;;;;;;11.57;3.42;;;;;;;22.81;57.34;99358.81;5153208;27;20184;-62
2022/04/14 09:14:00;;;;;;;5.55;2.55;;;;;;;22.47;56.22;99360.94;5153102;27;20519;-62
2022/04/14 09:16:29;;;;;;;3.70;3.28;;;;;;;22.39;56.02;99356.00;5151448;27;20054;-61
2022/04/14 09:18:56;;;;;;;6.80;3.33;;;;;;;22.33;56.80;99361.34;5135816;27;20541;-62
2022/04/14 09:21:22;;;;;;;9.90;4.93;;;;;;;22.20;58.60;99357.72;5134500;27;20565;-62
2022/04/14 09:23:51;;;;;;;8.65;5.70;;;;;;;22.43;58.20;99351.13;5148258;27;20488;-61
2022/04/14 09:26:23;;;;;;;12.05;6.88;;;;;;;22.57;58.04;99349.94;5133285;27;20459;-61
2022/04/14 09:29:01;;;;;;;12.18;5.63;;;;;;;22.39;58.18;99351.22;5141324;27;20537;-62
2022/04/14 09:31:28;;;;;;;13.95;6.38;;;;;;;22.20;58.72;99347.31;5153406;27;20051;-61
2022/04/14 09:33:55;;;;;;;14.00;7.53;;;;;;;21.99;57.70;99345.84;5153204;27;20053;-61
2022/04/14 09:36:23;;;;;;;17.00;7.55;;;;;;;21.59;57.07;99342.44;5152500;27;20061;-61
2022/04/14 09:39:01;;;;;;;17.30;7.22;;;;;;;21.27;59.74;99337.59;5134937;27;20058;-60
2022/04/14 09:41:32;;;;;;;17.17;8.43;;;;;;;21.57;59.36;99334.53;5138014;27;20043;-61
2022/04/14 09:44:00;;;;;;;31.30;7.60;;;;;;;21.56;59.26;99326.59;5152682;27;20099;-62
2022/04/14 09:46:26;;;;;;;19.63;8.20;;;;;;;21.45;58.86;99331.63;5150457;27;20111;-66
2022/04/14 09:49:05;;;;;;;18.08;6.55;;;;;;;21.50;59.31;99325.56;5140906;27;20050;-68
2022/04/14 09:51:33;;;;;;;18.48;7.88;;;;;;;21.29;58.73;99315.63;5137377;27;20133;-59
2022/04/14 09:54:15;;;;;;;16.98;7.95;;;;;;;21.25;60.44;99317.72;5142040;27;20402;-64
2022/04/14 09:57:30;;;;;;;17.55;8.35;;;;;;;21.12;60.29;99312.81;5211308;27;20335;-73
2022/04/14 09:59:56;;;;;;;17.45;8.18;;;;;;;21.05;60.00;99309.41;5189660;27;20065;-71
2022/04/14 10:02:23;;;;;;;18.55;7.72;;;;;;;21.20;60.97;99301.53;5183128;27;20042;-71
2022/04/14 10:04:49;;;;;;;16.73;7.80;;;;;;;21.32;60.55;99298.81;5189133;27;20102;-70
2022/04/14 10:07:16;;;;;;;16.38;7.20;;;;;;;21.22;61.70;99294.28;5184845;27;20050;-72
2022/04/14 10:09:45;;;;;;;18.95;7.88;;;;;;;21.10;60.72;99292.19;5182870;27;20057;-75
2022/04/14 10:12:35;;;;;;;16.60;7.03;;;;;;;21.23;59.89;99298.66;5171920;27;20051;-68
2022/04/14 10:15:05;;;;;;;13.40;6.53;;;;;;;21.02;62.03;99308.28;5163543;27;20056;-71
2022/04/14 10:17:32;;;;;;;11.23;6.22;;;;;;;20.93;58.89;99305.31;5189295;27;20046;-72
2022/04/14 10:19:59;;;;;;;16.52;6.35;;;;;;;20.16;59.72;99292.53;5187992;27;20046;-68
2022/04/14 10:22:26;;;;;;;13.27;5.88;;;;;;;20.12;61.86;99283.44;5189143;27;20045;-67
2022/04/14 10:24:54;;;;;;;10.10;5.80;;;;;;;20.34;61.96;99278.28;5182246;27;20053;-66
2022/04/14 10:27:21;;;;;;;10.15;5.65;;;;;;;20.41;62.60;99283.69;5172429;27;20112;-71
2022/04/14 10:29:48;;;;;;;15.48;5.63;;;;;;;20.57;61.58;99278.22;5189077;27;20042;-68
2022/04/14 10:32:15;;;;;;;8.45;5.63;;;;;;;20.36;60.67;99279.41;5189118;27;20472;-69
2022/04/14 10:34:41;;;;;;;12.60;5.82;;;;;;;20.21;61.33;99280.91;5187688;27;20046;-69
2022/04/14 10:37:11;;;;;;;22.08;6.40;;;;;;;20.16;61.56;99281.41;5187645;27;20053;-70
2022/04/14 10:39:44;;;;;;;11.07;4.72;;;;;;;20.16;62.66;99275.84;5170916;27;20477;-69
2022/04/14 10:42:12;;;;;;;14.70;5.18;;;;;;;20.12;61.42;99275.09;5186344;27;20054;-67
2022/04/14 10:44:46;;;;;;;24.42;10.45;;;;;;;20.13;62.48;99269.13;5180535;27;20061;-63
2022/04/14 10:47:32;;;;;;;13.20;5.93;;;;;;;20.12;62.08;99267.53;5171225;27;20512;-62
2022/04/14 10:49:58;;;;;;;16.98;5.15;;;;;;;20.19;61.63;99266.63;5188898;27;20094;-62
2022/04/14 10:52:26;;;;;;;32.53;4.95;;;;;;;20.06;62.16;99257.31;5184403;27;20409;-62
2022/04/14 10:54:56;;;;;;;11.43;5.63;;;;;;;19.93;62.71;99257.97;5169264;27;20445;-62
2022/04/14 10:57:35;;;;;;;12.90;5.28;;;;;;;19.87;61.16;99259.66;5169809;27;20406;-61
2022/04/14 11:00:02;;;;;;;9.02;5.10;;;;;;;19.94;63.20;99251.19;5188205;27;20050;-61
2022/04/14 11:03:01;;;;;;;7.13;4.82;;;;;;;19.86;61.98;99255.31;5186293;27;20111;-61
2022/04/14 11:05:38;;;;;;;13.45;4.88;;;;;;;19.82;60.97;99259.38;5187188;27;20050;-62
2022/04/14 11:08:24;;;;;;;12.68;5.35;;;;;;;19.64;62.49;99243.78;5177545;27;20051;-61
2022/04/14 11:10:55;;;;;;;11.25;5.15;;;;;;;19.54;63.04;99241.97;5174101;27;20046;-62
2022/04/14 11:13:21;;;;;;;12.50;5.38;;;;;;;19.45;63.89;99239.72;5154571;27;20054;-61
2022/04/14 11:15:47;;;;;;;10.88;3.95;;;;;;;19.33;63.43;99237.56;5158335;27;20049;-61
2022/04/14 11:18:16;;;;;;;52.90;7.43;;;;;;;18.96;63.52;99233.75;5156386;27;20061;-62
2022/04/14 11:20:53;;;;;;;8.00;5.40;;;;;;;18.64;65.19;99228.63;5173048;27;20081;-61
2022/04/14 11:23:21;;;;;;;17.13;4.15;;;;;;;18.51;68.12;99219.28;5168062;27;20085;-61
2022/04/14 11:25:49;;;;;;;12.65;6.28;;;;;;;18.21;65.04;99226.41;5162565;27;20057;-61
2022/04/14 11:28:26;;;;;;;8.43;4.07;;;;;;;17.90;66.54;99214.50;5168054;27;20051;-61